KRSTKSMO

Guest
Details From KRST - Rochester Intl
To KSMO - SANTA MONICA MUNI
Flight Number -
Tags decoded
Created
Modified
Stats Distance 1,365 nm / 2,528 km
Max Altitude 0 ft / 0 m
Waypoints 7
Social Downloads 1
Likes 0
Share VATSIM

Download

Looking for another format? Having issues loading an existing format? Contact us
Advertisement - Login to hide

Notes

Requested: KRST HEC PMD BOGET KIMMO DARTS KSMO

Route

KRST HEC PMD BOGET KIMMO DARTS KSMO

ID Type Via Altitude Latitude Longitude Leg Dist Tot Dist Heading (true) Name
O KRST APT - 0 ft / 0 m 43.90786˚ -92.50008˚ - 0 nm - Rochester Intl
HEC VOR - 0 ft / 0 m 34.79703˚ -116.46292˚ 1233 nm 1233 nm 252° / 236° HECTOR VORTAC
PMD VOR - 0 ft / 0 m 34.63139˚ -118.06383˚ 79 nm 1313 nm 263° / 262° PALMDALE VORTAC
BOGET FIX - 0 ft / 0 m 34.51421˚ -118.25151˚ 11 nm 1325 nm 233° / 233° -
KIMMO FIX - 0 ft / 0 m 34.41016˚ -118.41727˚ 10 nm 1335 nm 233° / 233° -
DARTS FIX - 0 ft / 0 m 34.15605˚ -118.26959˚ 16 nm 1352 nm 154° / 154° -
O KSMO APT - 0 ft / 0 m 34.01585˚ -118.45133˚ 12 nm 1364 nm 227° / 227° SANTA MONICA MUNI

Altitude Profile

Advertisement - Login to hide

Weather


0- 5 10 15 20 25 30 35+ Temperature / ° C

Clouds and Precipitation
Forecast for 2017-12-12 18:00 UTC. Updated an hour ago

Ground ~20,000 ft ~40,000 ft Winds

KRST

Details ICAO KRST (RST)
Name Rochester Intl
Region United States
Timezone America/Chicago (UTC-6.0)
Stats Elevation 1,317 ft / 401 m (AMSL)
Location 43.907862° -92.500085°
Runways 2
Magnetic Variation 0.295° W

METAR

KRST 121754Z 26010KT 10SM SCT046 BKN065 M10/M14 A3011 RMK AO2 SLP224 I6000 T11001139 11100 21156 58019

Decode

TAF

TAF KRST 121720Z 1218/1318 26009KT P6SM BKN070 FM122300 22008KT P6SM BKN030 FM130300 19011KT P6SM SCT035 FM131300 29012KT P6SM VCSH BKN025 FM131500 33015G23KT P6SM VCSH BKN015

Decode

Departure Runways

ID Width Length Bearing (true) Bearing (mag) Surface Threshold Offset Overrun Length
13 151 ft / 46 m 9,025 ft / 2,751 m 132.22° 132.51° Concrete 0 ft / 0 m 0 ft / 0 m
2 151 ft / 46 m 7,303 ft / 2,226 m 26.39° 26.68° Concrete 0 ft / 0 m 0 ft / 0 m
20 151 ft / 46 m 7,303 ft / 2,226 m 206.40° 206.69° Concrete 0 ft / 0 m 0 ft / 0 m
31 151 ft / 46 m 9,025 ft / 2,751 m 312.24° 312.53° Concrete 0 ft / 0 m 0 ft / 0 m

KSMO

Details ICAO KSMO (SMO)
Name SANTA MONICA MUNI
Region United States
Timezone America/Los_Angeles (UTC-8.0)
Stats Elevation 177 ft / 54 m (AMSL)
Location 34.015847° -118.451329°
Runways 1
Magnetic Variation 12.030° E

METAR

KSMO 121751Z 00000KT 10SM CLR 24/M08 A3019 RMK AO2 SLP223 T02441083 10244 20111 50003

Decode

TAF

TAF KSMO 121727Z 1218/1318 08004KT P6SM SKC FM122100 23006KT P6SM SKC FM130300 VRB03KT P6SM SKC FM131000 05005KT P6SM SKC

Decode

Destination Runways

ID Width Length Bearing (true) Bearing (mag) Surface Threshold Offset Overrun Length
03 151 ft / 46 m 4,978 ft / 1,517 m 44.45° 32.42° Asphalt 0 ft / 0 m 0 ft / 0 m
21 151 ft / 46 m 4,978 ft / 1,517 m 224.46° 212.43° Asphalt 0 ft / 0 m 0 ft / 0 m